createdAt,value
2019-05-05T00:02:30.351Z,2.96
2019-05-05T00:07:39.479Z,2.65
2019-05-05T00:12:48.528Z,2.57
2019-05-05T00:17:57.695Z,2.60
2019-05-05T00:23:06.750Z,2.44
2019-05-05T00:28:15.877Z,2.68
2019-05-05T00:33:25.008Z,2.43
2019-05-05T00:38:35.178Z,2.39
2019-05-05T00:43:42.630Z,2.40
2019-05-05T00:48:54.918Z,2.46
2019-05-05T00:54:01.175Z,2.59
2019-05-05T00:59:10.366Z,2.18
2019-05-05T01:04:19.430Z,2.27
2019-05-05T01:09:28.564Z,2.26
2019-05-05T01:14:37.613Z,2.56
2019-05-05T01:19:59.995Z,2.47
2019-05-05T01:24:55.557Z,2.64
2019-05-05T01:30:04.805Z,2.67
2019-05-05T01:35:14.336Z,2.34
2019-05-05T01:40:21.153Z,2.45
2019-05-05T01:45:30.200Z,2.57
2019-05-05T01:50:39.328Z,2.27
2019-05-05T01:55:48.374Z,2.36
2019-05-05T02:00:57.672Z,1.98
2019-05-05T02:06:06.712Z,2.45
2019-05-05T02:11:15.812Z,2.36
2019-05-05T02:16:25.458Z,2.29
2019-05-05T02:21:35.253Z,2.37
2019-05-05T02:26:42.130Z,2.18
2019-05-05T02:31:51.264Z,2.18
2019-05-05T02:37:00.329Z,2.06
2019-05-05T02:42:09.446Z,2.11
2019-05-05T02:47:18.489Z,1.61
2019-05-05T02:52:27.620Z,1.92
2019-05-05T02:57:36.661Z,2.18
2019-05-05T03:02:46.778Z,2.09
2019-05-05T03:07:45.791Z,2.02
2019-05-05T03:12:54.928Z,1.81
2019-05-05T03:18:04.223Z,1.78
2019-05-05T03:23:13.644Z,2.02
2019-05-05T03:28:21.680Z,1.92
2019-05-05T03:33:30.903Z,2.00
2019-05-05T03:38:40.062Z,2.12
2019-05-05T03:43:49.175Z,2.31
2019-05-05T03:48:58.823Z,2.18
2019-05-05T03:54:07.994Z,1.98
2019-05-05T03:59:17.068Z,1.97
2019-05-05T04:04:26.202Z,2.21
2019-05-05T04:09:35.257Z,2.28
2019-05-05T04:14:44.510Z,2.35
2019-05-05T04:19:54.229Z,2.46
2019-05-05T04:25:04.486Z,2.11
2019-05-05T04:30:10.881Z,2.11
2019-05-05T04:35:20.058Z,2.03
2019-05-05T04:40:29.090Z,2.06
2019-05-05T04:45:38.221Z,2.26
2019-05-05T04:50:47.530Z,2.39
2019-05-05T04:55:56.771Z,2.33
2019-05-05T05:01:05.795Z,2.05
2019-05-05T05:06:14.992Z,1.79
2019-05-05T05:11:24.635Z,1.63
2019-05-05T05:16:32.651Z,1.74
2019-05-05T05:21:43.501Z,2.01
2019-05-05T05:26:50.370Z,1.85
2019-05-05T05:31:59.419Z,2.11
2019-05-05T05:37:08.603Z,1.74
2019-05-05T05:42:17.664Z,1.82
2019-05-05T05:47:26.795Z,2.18
2019-05-05T05:52:35.830Z,1.89
2019-05-05T05:57:44.968Z,1.82
2019-05-05T06:02:54.548Z,2.06
2019-05-05T06:08:04.534Z,1.97
2019-05-05T06:13:11.389Z,2.68
2019-05-05T06:18:20.515Z,2.14
2019-05-05T06:23:29.554Z,2.50
2019-05-05T06:28:38.669Z,1.73
2019-05-05T06:33:47.713Z,1.93
2019-05-05T06:38:56.833Z,1.92
2019-05-05T06:44:05.863Z,2.02
2019-05-05T06:49:14.970Z,2.27
2019-05-05T06:54:24.207Z,2.17
2019-05-05T06:59:34.997Z,2.49
2019-05-05T07:04:41.698Z,1.93
2019-05-05T07:09:50.818Z,1.87
2019-05-05T07:14:59.857Z,2.12
2019-05-05T07:20:08.981Z,1.85
2019-05-05T07:25:18.038Z,1.98
2019-05-05T07:30:27.144Z,1.76
2019-05-05T07:35:36.292Z,2.13
2019-05-05T07:40:45.471Z,2.02
2019-05-05T07:45:54.521Z,2.06
2019-05-05T07:51:05.313Z,2.29
2019-05-05T07:56:14.395Z,2.08
2019-05-05T08:01:21.142Z,2.15
2019-05-05T08:06:30.204Z,2.48
2019-05-05T08:11:39.374Z,2.35
2019-05-05T08:16:48.421Z,2.50
2019-05-05T08:21:57.547Z,2.57
2019-05-05T08:27:06.673Z,1.64
2019-05-05T08:32:15.779Z,2.26
2019-05-05T08:37:24.831Z,3.05
2019-05-05T08:42:34.009Z,2.54
2019-05-05T08:47:43.635Z,2.86
2019-05-05T08:52:53.617Z,2.24
2019-05-05T08:58:00.494Z,2.14
2019-05-05T09:03:09.918Z,2.48
2019-05-05T09:08:18.970Z,2.46
2019-05-05T09:13:28.096Z,1.90
2019-05-05T09:18:37.150Z,1.89
2019-05-05T09:23:58.985Z,2.66
2019-05-05T09:28:54.880Z,2.66
2019-05-05T09:34:04.178Z,2.59
2019-05-05T09:39:13.869Z,2.63
2019-05-05T09:44:21.723Z,2.52
2019-05-05T09:49:30.774Z,2.59
2019-05-05T09:54:39.854Z,2.33
2019-05-05T09:59:56.711Z,2.45
2019-05-05T10:04:56.327Z,2.50
2019-05-05T10:09:54.393Z,1.97
2019-05-05T10:15:07.214Z,2.17
2019-05-05T10:20:14.387Z,1.85
2019-05-05T10:25:20.792Z,1.82
2019-05-05T10:30:29.966Z,2.44
2019-05-05T10:35:39.259Z,1.94
2019-05-05T10:40:53.729Z,2.04
2019-05-05T10:45:50.542Z,1.97
2019-05-05T10:50:59.589Z,2.01
2019-05-05T10:56:08.706Z,2.81
2019-05-05T11:01:17.741Z,0.84
2019-05-05T11:06:26.909Z,2.23
2019-05-05T11:11:36.026Z,2.11
2019-05-05T11:16:45.158Z,1.92
2019-05-05T11:21:54.201Z,1.76
2019-05-05T11:27:04.451Z,1.80
2019-05-05T11:32:15.206Z,1.74
2019-05-05T11:37:21.618Z,2.02
2019-05-05T11:42:30.659Z,1.84
2019-05-05T11:47:39.792Z,1.04
2019-05-05T11:52:48.857Z,1.66
2019-05-05T11:57:57.982Z,2.33
2019-05-05T12:03:07.073Z,1.97
2019-05-05T12:08:16.226Z,2.22
2019-05-05T12:13:25.274Z,2.76
2019-05-05T12:18:34.613Z,1.49
2019-05-05T12:23:44.485Z,1.82
2019-05-05T12:28:54.426Z,1.77
2019-05-05T12:34:00.894Z,2.19
2019-05-05T12:39:10.285Z,1.70
2019-05-05T12:44:19.402Z,1.87
2019-05-05T12:49:28.563Z,1.28
2019-05-05T12:54:37.634Z,1.72
2019-05-05T12:59:47.066Z,1.92
2019-05-05T13:04:56.118Z,1.16
2019-05-05T13:10:05.284Z,1.85
2019-05-05T13:15:14.443Z,1.82
2019-05-05T13:20:24.678Z,2.27
2019-05-05T13:25:33.616Z,2.30
2019-05-05T13:30:40.738Z,2.36
2019-05-05T13:35:49.947Z,2.15
2019-05-05T13:40:59.940Z,2.31
2019-05-05T13:46:14.024Z,2.04
2019-05-05T13:51:12.087Z,2.10
2019-05-05T13:56:21.119Z,2.19
2019-05-05T14:01:30.214Z,2.26
2019-05-05T14:06:39.325Z,2.44
2019-05-05T14:11:48.371Z,1.73
2019-05-05T14:16:57.424Z,2.09
2019-05-05T14:22:06.556Z,2.05
2019-05-05T14:27:15.737Z,1.98
2019-05-05T14:32:24.908Z,2.54
2019-05-05T14:37:34.131Z,2.51
2019-05-05T14:42:43.518Z,3.08
2019-05-05T14:47:53.526Z,2.59
2019-05-05T14:53:00.448Z,1.83
2019-05-05T14:58:09.510Z,1.76
2019-05-05T15:03:18.639Z,1.37
2019-05-05T15:08:27.813Z,1.76
2019-05-05T15:13:37.022Z,1.37
2019-05-05T15:18:46.071Z,1.07
2019-05-05T15:23:55.211Z,0.92
2019-05-05T15:29:04.443Z,1.37
2019-05-05T15:34:13.579Z,1.94
2019-05-05T15:39:24.411Z,1.47
2019-05-05T15:44:31.302Z,1.39
2019-05-05T15:49:40.365Z,2.17
2019-05-05T15:54:50.710Z,2.45
2019-05-05T15:59:49.703Z,1.87
2019-05-05T16:04:58.884Z,2.05
2019-05-05T16:10:08.095Z,1.54
2019-05-05T16:15:17.194Z,1.67
2019-05-05T16:20:26.244Z,2.55
2019-05-05T16:25:35.638Z,2.36
2019-05-05T16:30:44.787Z,2.33
2019-05-05T16:35:54.021Z,2.21
2019-05-05T16:41:03.254Z,1.70
2019-05-05T16:46:16.696Z,1.36
2019-05-05T16:51:21.076Z,1.22
2019-05-05T16:56:30.188Z,1.74
2019-05-05T17:01:39.238Z,1.61
2019-05-05T17:06:48.400Z,1.57
2019-05-05T17:11:57.458Z,1.41
2019-05-05T17:17:06.813Z,2.64
2019-05-05T17:22:15.855Z,1.78
2019-05-05T17:27:25.269Z,1.79
2019-05-05T17:32:34.544Z,1.66
2019-05-05T17:37:44.262Z,1.52
2019-05-05T17:42:53.505Z,2.01
2019-05-05T17:48:00.604Z,2.00
2019-05-05T17:53:09.651Z,1.81
2019-05-05T17:58:19.574Z,1.75
2019-05-05T18:03:28.607Z,1.36
2019-05-05T18:08:37.815Z,2.15
2019-05-05T18:13:46.859Z,2.15
2019-05-05T18:18:55.985Z,2.07
2019-05-05T18:24:05.052Z,2.06
2019-05-05T18:29:14.554Z,1.71
2019-05-05T18:34:23.547Z,1.03
2019-05-05T18:39:31.488Z,0.99
2019-05-05T18:44:40.561Z,1.09
2019-05-05T18:49:49.792Z,1.54
2019-05-05T18:54:58.910Z,1.33
2019-05-05T19:00:08.035Z,1.83
2019-05-05T19:05:17.237Z,1.87
2019-05-05T19:10:26.411Z,2.52
2019-05-05T19:15:35.490Z,2.72
2019-05-05T19:20:44.729Z,2.57
2019-05-05T19:25:55.815Z,2.56
2019-05-05T19:31:04.219Z,2.67
2019-05-05T19:36:10.975Z,3.06
2019-05-05T19:41:20.123Z,2.57
2019-05-05T19:46:29.170Z,2.94
2019-05-05T19:51:38.398Z,2.89
2019-05-05T19:56:47.469Z,2.43
2019-05-05T20:01:56.635Z,2.77
2019-05-05T20:07:05.671Z,2.31
2019-05-05T20:12:14.858Z,2.25
2019-05-05T20:17:23.879Z,2.24
2019-05-05T20:22:34.849Z,2.65
2019-05-05T20:27:41.653Z,2.29
2019-05-05T20:32:50.995Z,2.26
2019-05-05T20:38:00.218Z,1.95
2019-05-05T20:43:09.340Z,3.14
2019-05-05T20:48:18.379Z,3.03
2019-05-05T20:53:27.495Z,2.79
2019-05-05T20:58:36.560Z,3.23
2019-05-05T21:03:45.674Z,3.14
2019-05-05T21:08:54.739Z,2.73
2019-05-05T21:14:04.084Z,2.58
2019-05-05T21:19:14.075Z,2.77
2019-05-05T21:24:21.534Z,2.71
2019-05-05T21:29:39.577Z,2.57
2019-05-05T21:34:39.204Z,2.80
2019-05-05T21:39:48.239Z,2.39
2019-05-05T21:44:57.390Z,2.16
2019-05-05T21:50:06.451Z,2.47
2019-05-05T21:55:15.622Z,2.49
2019-05-05T22:00:24.707Z,2.08
2019-05-05T22:05:33.825Z,2.22
2019-05-05T22:10:42.863Z,2.21
2019-05-05T22:15:51.978Z,2.48
2019-05-05T22:21:01.090Z,1.99
2019-05-05T22:26:10.255Z,2.46
2019-05-05T22:31:19.286Z,1.97
2019-05-05T22:36:28.432Z,2.44
2019-05-05T22:41:37.466Z,2.08
2019-05-05T22:46:46.590Z,2.38
2019-05-05T22:51:55.635Z,2.09
2019-05-05T22:57:04.791Z,1.84
2019-05-05T23:02:14.556Z,1.36
2019-05-05T23:07:24.090Z,1.89
2019-05-05T23:12:31.139Z,1.61
2019-05-05T23:17:40.259Z,1.47
2019-05-05T23:22:49.338Z,1.64
2019-05-05T23:27:58.455Z,1.56
2019-05-05T23:33:07.514Z,1.60
2019-05-05T23:38:16.674Z,1.32
2019-05-05T23:43:25.715Z,1.68
2019-05-05T23:48:34.961Z,1.68
2019-05-05T23:53:44.511Z,1.47
2019-05-05T23:58:54.712Z,1.35
